createdAt,value
2016-04-12T00:00:31.706Z,67.99
2016-04-12T00:01:31.740Z,68.18
2016-04-12T00:02:31.650Z,68.18
2016-04-12T00:03:31.636Z,68.08
2016-04-12T00:04:31.608Z,67.89
2016-04-12T00:05:31.578Z,68.27
2016-04-12T00:06:31.566Z,68.08
2016-04-12T00:07:31.538Z,67.99
2016-04-12T00:08:31.514Z,67.89
2016-04-12T00:09:31.492Z,67.99
2016-04-12T00:10:31.464Z,67.99
2016-04-12T00:11:31.434Z,67.89
2016-04-12T00:12:31.422Z,68.08
2016-04-12T00:13:31.393Z,67.99
2016-04-12T00:14:31.364Z,68.18
2016-04-12T00:15:31.352Z,67.8
2016-04-12T00:16:31.354Z,67.89
2016-04-12T00:17:31.294Z,67.99
2016-04-12T00:18:31.281Z,68.08
2016-04-12T00:19:31.252Z,67.99
2016-04-12T00:20:31.224Z,67.51
2016-04-12T00:21:31.195Z,67.8
2016-04-12T00:22:31.183Z,67.7
2016-04-12T00:23:31.154Z,67.89
2016-04-12T00:24:31.141Z,67.99
2016-04-12T00:25:31.096Z,67.8
2016-04-12T00:26:31.085Z,67.61
2016-04-12T00:27:31.054Z,67.89
2016-04-12T00:28:31.027Z,67.7
2016-04-12T00:29:31.012Z,67.89
2016-04-12T00:30:30.981Z,67.7
2016-04-12T00:31:31.015Z,67.89
2016-04-12T00:32:30.937Z,67.89
2016-04-12T00:33:30.907Z,67.7
2016-04-12T00:34:30.879Z,67.7
2016-04-12T00:35:30.865Z,67.89
2016-04-12T00:36:30.837Z,67.89
2016-04-12T00:37:30.809Z,67.7
2016-04-12T00:38:30.796Z,67.8
2016-04-12T00:39:30.768Z,67.61
2016-04-12T00:40:30.739Z,67.89
2016-04-12T00:41:30.711Z,67.7
2016-04-12T00:42:30.713Z,67.8
2016-04-12T00:43:30.670Z,67.8
2016-04-12T00:44:30.640Z,67.61
2016-04-12T00:45:30.627Z,67.8
2016-04-12T00:46:30.615Z,67.7
2016-04-12T00:47:30.570Z,67.61
2016-04-12T00:48:30.542Z,67.7
2016-04-12T00:49:30.528Z,67.8
2016-04-12T00:50:30.501Z,67.7
2016-04-12T00:51:30.472Z,67.7
2016-04-12T00:52:30.459Z,67.89
2016-04-12T00:53:30.430Z,67.89
2016-04-12T00:54:30.402Z,67.8
2016-04-12T00:55:30.374Z,67.89
2016-04-12T00:56:30.361Z,67.13
2016-04-12T00:57:30.332Z,68.08
2016-04-12T00:58:30.302Z,67.7
2016-04-12T00:59:30.291Z,67.7
2016-04-12T01:00:30.262Z,67.7
2016-04-12T01:01:30.248Z,67.7
2016-04-12T01:02:30.221Z,67.7
2016-04-12T01:03:30.191Z,67.51
2016-04-12T01:04:30.163Z,67.61
2016-04-12T01:05:30.134Z,67.32
2016-04-12T01:06:30.121Z,66.94
2016-04-12T01:07:30.093Z,67.03
2016-04-12T01:08:30.065Z,66.94
2016-04-12T01:09:30.051Z,67.03
2016-04-12T01:10:30.023Z,67.22
2016-04-12T01:11:29.995Z,67.22
2016-04-12T01:12:29.982Z,67.22
2016-04-12T01:13:29.953Z,67.13
2016-04-12T01:14:29.924Z,67.03
2016-04-12T01:15:29.895Z,67.13
2016-04-12T01:16:29.883Z,67.13
2016-04-12T01:17:29.854Z,66.94
2016-04-12T01:18:29.825Z,67.13
2016-04-12T01:19:29.813Z,67.22
2016-04-12T01:20:29.784Z,67.22
2016-04-12T01:21:29.755Z,67.22
2016-04-12T01:22:29.742Z,67.13
2016-04-12T01:23:29.714Z,66.94
2016-04-12T01:24:29.686Z,67.7
2016-04-12T01:25:29.657Z,67.89
2016-04-12T01:26:29.644Z,67.8
2016-04-12T01:27:29.616Z,67.61
2016-04-12T01:28:29.587Z,67.7
2016-04-12T01:29:29.574Z,68.18
2016-04-12T01:30:29.546Z,68.18
2016-04-12T01:31:29.516Z,68.27
2016-04-12T01:32:29.504Z,68.18
2016-04-12T01:33:29.476Z,67.99
2016-04-12T01:34:29.446Z,67.89
2016-04-12T01:35:29.418Z,68.75
2016-04-12T01:36:29.405Z,68.65
2016-04-12T01:37:29.376Z,68.65
2016-04-12T01:38:29.348Z,68.37
2016-04-12T01:39:29.335Z,68.37
2016-04-12T01:40:29.306Z,68.46
2016-04-12T01:41:29.293Z,68.27
2016-04-12T01:42:29.265Z,68.46
2016-04-12T01:43:29.236Z,68.46
2016-04-12T01:44:29.209Z,68.46
2016-04-12T01:45:29.179Z,68.56
2016-04-12T01:46:29.167Z,69.04
2016-04-12T01:47:29.138Z,68.75
2016-04-12T01:48:29.109Z,68.65
2016-04-12T01:49:29.097Z,68.84
2016-04-12T01:50:29.067Z,68.75
2016-04-12T01:51:29.039Z,68.75
2016-04-12T01:52:29.011Z,68.65
2016-04-12T01:53:29.013Z,68.75
2016-04-12T01:54:28.969Z,68.75
2016-04-12T01:55:28.941Z,68.84
2016-04-12T01:56:28.928Z,68.75
2016-04-12T01:57:28.900Z,68.94
2016-04-12T01:58:28.871Z,68.75
2016-04-12T01:59:28.857Z,68.94
2016-04-12T02:00:28.830Z,69.23
2016-04-12T02:01:28.801Z,68.84
2016-04-12T02:02:28.788Z,69.42
2016-04-12T02:03:28.760Z,69.51
2016-04-12T02:04:28.730Z,69.51
2016-04-12T02:05:28.702Z,69.32
2016-04-12T02:06:28.689Z,69.13
2016-04-12T02:07:28.660Z,69.32
2016-04-12T02:08:28.632Z,69.23
2016-04-12T02:09:28.618Z,69.23
2016-04-12T02:10:28.590Z,69.13
2016-04-12T02:11:28.561Z,69.51
2016-04-12T02:12:28.533Z,69.79
2016-04-12T02:13:28.520Z,69.89
2016-04-12T02:14:28.492Z,69.7
2016-04-12T02:15:28.463Z,69.79
2016-04-12T02:16:28.450Z,69.79
2016-04-12T02:17:28.422Z,69.79
2016-04-12T02:18:28.393Z,69.7
2016-04-12T02:19:28.365Z,69.79
2016-04-12T02:20:28.352Z,69.7
2016-04-12T02:21:28.323Z,69.6
2016-04-12T02:22:28.295Z,69.51
2016-04-12T02:23:28.281Z,69.32
2016-04-12T02:24:28.253Z,69.32
2016-04-12T02:25:28.225Z,69.51
2016-04-12T02:26:28.211Z,69.6
2016-04-12T02:27:28.183Z,69.7
2016-04-12T02:28:28.169Z,69.89
2016-04-12T02:29:28.126Z,69.99
2016-04-12T02:30:28.113Z,69.79
2016-04-12T02:31:28.084Z,69.89
2016-04-12T02:32:28.055Z,69.99
2016-04-12T02:33:28.043Z,69.99
2016-04-12T02:34:28.015Z,70.08
2016-04-12T02:35:27.986Z,69.89
2016-04-12T02:36:27.958Z,69.99
2016-04-12T02:37:27.944Z,69.99
2016-04-12T02:38:27.916Z,70.47
2016-04-12T02:39:27.903Z,70.37
2016-04-12T02:40:27.874Z,70.37
2016-04-12T02:41:27.846Z,70.47
2016-04-12T02:42:27.817Z,70.37
2016-04-12T02:43:27.804Z,70.37
2016-04-12T02:44:27.776Z,70.27
2016-04-12T02:45:27.748Z,70.47
2016-04-12T02:46:27.718Z,70.27
2016-04-12T02:47:27.706Z,70.18
2016-04-12T02:48:27.677Z,70.65
2016-04-12T02:49:27.648Z,70.27
2016-04-12T02:50:27.636Z,70.47
2016-04-12T02:51:27.606Z,70.47
2016-04-12T02:52:27.578Z,70.65
2016-04-12T02:53:27.550Z,70.56
2016-04-12T02:54:27.552Z,70.47
2016-04-12T02:55:27.508Z,70.37
2016-04-12T02:56:27.480Z,70.75
2016-04-12T02:57:27.466Z,70.84
2016-04-12T02:58:27.438Z,70.84
2016-04-12T02:59:27.409Z,71.03
2016-04-12T03:00:27.380Z,71.03
2016-04-12T03:01:27.368Z,71.03
2016-04-12T03:02:27.340Z,70.84
2016-04-12T03:03:27.310Z,70.75
2016-04-12T03:04:27.298Z,70.65
2016-04-12T03:05:27.269Z,70.84
2016-04-12T03:06:27.240Z,70.75
2016-04-12T03:07:27.212Z,70.84
2016-04-12T03:08:27.199Z,71.13
2016-04-12T03:09:27.170Z,70.84
2016-04-12T03:10:27.142Z,70.56
2016-04-12T03:11:27.129Z,70.84
2016-04-12T03:12:27.101Z,70.94
2016-04-12T03:13:27.073Z,70.94
2016-04-12T03:14:27.059Z,70.65
2016-04-12T03:15:27.031Z,70.94
2016-04-12T03:16:27.017Z,70.94
2016-04-12T03:17:26.973Z,70.94
2016-04-12T03:18:26.961Z,70.75
2016-04-12T03:19:26.931Z,70.75
2016-04-12T03:20:26.920Z,70.94
2016-04-12T03:21:26.892Z,70.84
2016-04-12T03:22:26.862Z,70.75
2016-04-12T03:23:26.834Z,70.75
2016-04-12T03:24:26.820Z,70.75
2016-04-12T03:25:26.792Z,70.75
2016-04-12T03:26:26.764Z,70.75
2016-04-12T03:27:26.735Z,70.65
2016-04-12T03:28:26.722Z,70.65
2016-04-12T03:29:26.693Z,70.84
2016-04-12T03:30:26.665Z,70.75
2016-04-12T03:31:26.652Z,70.84
2016-04-12T03:32:26.623Z,70.84
2016-04-12T03:33:26.594Z,70.84
2016-04-12T03:34:26.582Z,70.75
2016-04-12T03:35:26.554Z,70.84
2016-04-12T03:36:26.524Z,70.84
2016-04-12T03:37:26.512Z,71.03
2016-04-12T03:38:26.483Z,70.47
2016-04-12T03:39:26.455Z,70.56
2016-04-12T03:40:26.427Z,70.56
2016-04-12T03:41:26.398Z,70.56
2016-04-12T03:42:26.385Z,70.56
2016-04-12T03:43:26.356Z,70.47
2016-04-12T03:44:26.328Z,70.37
2016-04-12T03:45:26.315Z,70.47
2016-04-12T03:46:26.286Z,70.27
2016-04-12T03:47:26.257Z,70.18
2016-04-12T03:48:26.244Z,70.56
2016-04-12T03:49:26.216Z,70.56
2016-04-12T03:50:26.187Z,70.37
2016-04-12T03:51:26.174Z,70.27
2016-04-12T03:52:26.145Z,70.18
2016-04-12T03:53:26.133Z,70.47
2016-04-12T03:54:26.089Z,70.08
2016-04-12T03:55:26.076Z,69.99
2016-04-12T03:56:26.047Z,70.08
2016-04-12T03:57:26.019Z,69.89
2016-04-12T03:58:26.005Z,70.27
2016-04-12T03:59:25.994Z,70.02
2016-04-12T04:00:25.949Z,70.08
2016-04-12T04:01:25.936Z,70.18
2016-04-12T04:02:25.922Z,70.08
2016-04-12T04:03:25.879Z,70.21
2016-04-12T04:04:25.850Z,70.08
2016-04-12T04:05:25.838Z,69.99
2016-04-12T04:06:25.808Z,70.02
2016-04-12T04:07:25.779Z,70.18
2016-04-12T04:08:25.767Z,69.89
2016-04-12T04:09:25.739Z,69.93
2016-04-12T04:10:25.710Z,69.99
2016-04-12T04:11:25.697Z,69.79
2016-04-12T04:12:25.668Z,69.93
2016-04-12T04:13:25.640Z,69.93
2016-04-12T04:14:25.612Z,69.83
2016-04-12T04:15:25.598Z,69.51
2016-04-12T04:16:25.570Z,69.32
2016-04-12T04:17:25.556Z,69.74
2016-04-12T04:18:25.529Z,69.64
2016-04-12T04:19:25.500Z,69.74
2016-04-12T04:20:25.471Z,69.74
2016-04-12T04:21:25.458Z,69.83
2016-04-12T04:22:25.430Z,69.93
2016-04-12T04:23:25.401Z,69.83
2016-04-12T04:24:25.388Z,69.35
2016-04-12T04:25:25.359Z,69.17
2016-04-12T04:26:25.331Z,69.17
2016-04-12T04:27:25.319Z,69.17
2016-04-12T04:28:25.289Z,69.07
2016-04-12T04:29:25.261Z,69.83
2016-04-12T04:30:25.248Z,69.83
2016-04-12T04:31:25.219Z,69.17
2016-04-12T04:32:25.207Z,69.26
2016-04-12T04:33:25.178Z,69.17
2016-04-12T04:34:25.149Z,69.17
2016-04-12T04:35:25.121Z,69.17
2016-04-12T04:36:25.092Z,69.35
2016-04-12T04:37:25.080Z,69.26
2016-04-12T04:38:25.051Z,69.17
2016-04-12T04:39:25.022Z,69.45
2016-04-12T04:40:25.010Z,69.26
2016-04-12T04:41:24.981Z,69.35
2016-04-12T04:42:24.952Z,69.45
2016-04-12T04:43:24.940Z,68.98
2016-04-12T04:44:24.910Z,69.26
2016-04-12T04:45:24.882Z,69.35
2016-04-12T04:46:24.870Z,69.54
2016-04-12T04:47:24.856Z,69.35
2016-04-12T04:48:24.812Z,69.45
2016-04-12T04:49:24.799Z,69.35
2016-04-12T04:50:24.771Z,69.35
2016-04-12T04:51:24.742Z,69.35
2016-04-12T04:52:24.714Z,69.07
2016-04-12T04:53:24.700Z,69.35
2016-04-12T04:54:24.673Z,69.35
2016-04-12T04:55:24.644Z,69.35
2016-04-12T04:56:24.631Z,69.35
2016-04-12T04:57:24.602Z,68.88
2016-04-12T04:58:24.572Z,68.78
2016-04-12T04:59:24.561Z,68.98
2016-04-12T05:00:24.532Z,68.88
2016-04-12T05:01:24.503Z,69.07
2016-04-12T05:02:24.506Z,69.07
2016-04-12T05:03:24.461Z,68.98
2016-04-12T05:04:24.449Z,68.69
2016-04-12T05:05:24.421Z,68.78
2016-04-12T05:06:24.392Z,68.88
2016-04-12T05:07:24.363Z,68.88
2016-04-12T05:08:24.350Z,68.78
2016-04-12T05:09:24.322Z,68.88
2016-04-12T05:10:24.304Z,68.88
2016-04-12T05:11:24.274Z,68.88
2016-04-12T05:12:24.245Z,68.88
2016-04-12T05:13:24.234Z,68.69
2016-04-12T05:14:24.204Z,68.5
2016-04-12T05:15:24.175Z,68.3
2016-04-12T05:16:24.163Z,68.3
2016-04-12T05:17:24.134Z,68.4
2016-04-12T05:18:24.106Z,68.5
2016-04-12T05:19:24.092Z,68.3
2016-04-12T05:20:24.064Z,68.21
2016-04-12T05:21:24.036Z,68.4
2016-04-12T05:22:24.022Z,68.4
2016-04-12T05:23:23.994Z,68.4
2016-04-12T05:24:23.966Z,68.5
2016-04-12T05:25:23.953Z,68.59
2016-04-12T05:26:23.925Z,68.88
2016-04-12T05:27:23.896Z,68.3
2016-04-12T05:28:23.883Z,67.93
2016-04-12T05:29:23.854Z,68.21
2016-04-12T05:30:23.825Z,68.44
2016-04-12T05:31:23.813Z,68.24
2016-04-12T05:32:23.784Z,67.96
2016-04-12T05:33:23.771Z,67.96
2016-04-12T05:34:23.742Z,68.05
2016-04-12T05:35:23.714Z,67.96
2016-04-12T05:36:23.701Z,67.96
2016-04-12T05:37:23.672Z,67.77
2016-04-12T05:38:23.644Z,67.86
2016-04-12T05:39:23.631Z,67.77
2016-04-12T05:40:23.602Z,67.77
2016-04-12T05:41:23.574Z,67.77
2016-04-12T05:42:23.561Z,67.1
2016-04-12T05:43:23.532Z,67.2
2016-04-12T05:44:23.503Z,67.29
2016-04-12T05:45:23.491Z,67.1
2016-04-12T05:46:23.462Z,67.58
2016-04-12T05:47:23.450Z,67.2
2016-04-12T05:48:23.452Z,67.48
2016-04-12T05:49:23.408Z,67.1
2016-04-12T05:50:23.379Z,67.2
2016-04-12T05:51:23.350Z,67.1
2016-04-12T05:52:23.322Z,67.29
2016-04-12T05:53:23.309Z,66.91
2016-04-12T05:54:23.281Z,66.82
2016-04-12T05:55:23.252Z,66.72
2016-04-12T05:56:23.239Z,66.72
2016-04-12T05:57:23.211Z,66.63
2016-04-12T05:58:23.197Z,66.82
2016-04-12T05:59:23.169Z,66.82
2016-04-12T06:00:23.141Z,66.63
2016-04-12T06:01:23.127Z,66.82
2016-04-12T06:02:23.099Z,66.72
2016-04-12T06:03:23.071Z,66.82
2016-04-12T06:04:23.058Z,66.72
2016-04-12T06:05:23.029Z,67.1
2016-04-12T06:06:23.015Z,66.82
2016-04-12T06:07:22.988Z,66.66
2016-04-12T06:08:22.959Z,66.66
2016-04-12T06:09:22.946Z,66.75
2016-04-12T06:10:22.918Z,66.47
2016-04-12T06:11:22.904Z,66.56
2016-04-12T06:12:22.876Z,66.66
2016-04-12T06:13:22.847Z,66.66
2016-04-12T06:14:22.834Z,66.56
2016-04-12T06:15:22.806Z,66.66
2016-04-12T06:16:22.778Z,66.85
2016-04-12T06:17:22.764Z,66.47
2016-04-12T06:18:22.736Z,66.38
2016-04-12T06:19:22.723Z,66.56
2016-04-12T06:20:22.694Z,66.56
2016-04-12T06:21:22.681Z,66.18
2016-04-12T06:22:22.653Z,65.99
2016-04-12T06:23:22.625Z,65.99
2016-04-12T06:24:22.611Z,65.89
2016-04-12T06:25:22.583Z,65.99
2016-04-12T06:26:22.570Z,65.8
2016-04-12T06:27:22.541Z,65.42
2016-04-12T06:28:22.527Z,65.55
2016-04-12T06:29:22.500Z,65.55
2016-04-12T06:30:22.471Z,65.26
2016-04-12T06:31:22.458Z,64.97
2016-04-12T06:32:22.430Z,64.5
2016-04-12T06:33:22.416Z,63.92
2016-04-12T06:34:22.388Z,63.92
2016-04-12T06:35:22.375Z,63.83
2016-04-12T06:36:22.347Z,64.02
2016-04-12T06:37:22.334Z,63.2
2016-04-12T06:38:22.305Z,63.1
2016-04-12T06:39:22.293Z,62.91
2016-04-12T06:40:22.264Z,62.15
2016-04-12T06:41:22.251Z,62.05
2016-04-12T06:42:22.222Z,62.05
2016-04-12T06:43:22.209Z,61.57
2016-04-12T06:44:22.181Z,61.47
2016-04-12T06:45:22.168Z,61.57
2016-04-12T06:46:22.139Z,60.93
2016-04-12T06:47:22.126Z,60.93
2016-04-12T06:48:22.098Z,61.13
2016-04-12T06:49:22.084Z,60.84
2016-04-12T06:50:22.056Z,60.84
2016-04-12T06:51:22.043Z,60.74
2016-04-12T06:52:22.015Z,60.36
2016-04-12T06:53:22.127Z,60.27
2016-04-12T06:54:21.973Z,60.36
2016-04-12T06:55:21.961Z,60.46
2016-04-12T06:56:21.948Z,60.46
2016-04-12T06:57:21.919Z,59.98
2016-04-12T06:58:21.891Z,60.07
2016-04-12T06:59:21.877Z,59.78
2016-04-12T07:00:21.864Z,59.88
2016-04-12T07:01:21.866Z,60.17
2016-04-12T07:02:21.807Z,60.07
2016-04-12T07:03:21.794Z,59.5
2016-04-12T07:04:21.782Z,59.34
2016-04-12T07:05:21.752Z,59.34
2016-04-12T07:06:21.724Z,59.63
2016-04-12T07:07:21.711Z,59.34
2016-04-12T07:08:21.698Z,59.44
2016-04-12T07:09:21.670Z,59.24
2016-04-12T07:10:21.657Z,58.76
2016-04-12T07:11:21.643Z,58.58
2016-04-12T07:12:21.615Z,58.76
2016-04-12T07:13:21.587Z,58.12
2016-04-12T07:14:21.574Z,58.22
2016-04-12T07:15:21.561Z,57.65
2016-04-12T07:16:21.532Z,57.65
2016-04-12T07:17:21.520Z,57.26
2016-04-12T07:18:21.506Z,56.5
2016-04-12T07:19:21.493Z,56.4
2016-04-12T07:20:21.465Z,56.34
2016-04-12T07:21:21.453Z,56.15
2016-04-12T07:22:21.423Z,55.57
2016-04-12T07:23:21.411Z,55.51
2016-04-12T07:24:21.397Z,54.83
2016-04-12T07:25:21.384Z,54.74
2016-04-12T07:26:21.372Z,54.16
2016-04-12T07:27:21.344Z,54.16
2016-04-12T07:28:21.330Z,53.3
2016-04-12T07:29:21.317Z,53.78
2016-04-12T07:30:21.305Z,53.14
2016-04-12T07:31:21.291Z,53.23
2016-04-12T07:32:21.263Z,52.85
2016-04-12T07:33:21.250Z,53.14
2016-04-12T07:34:21.238Z,52.18
2016-04-12T07:35:21.224Z,52.28
2016-04-12T07:36:21.226Z,52.37
2016-04-12T07:37:21.199Z,51.7
2016-04-12T07:38:21.169Z,51.61
2016-04-12T07:39:21.157Z,51.51
2016-04-12T07:40:21.144Z,51.79
2016-04-12T07:41:21.131Z,50.96
2016-04-12T07:42:21.121Z,50.67
2016-04-12T07:43:21.141Z,50.87
2016-04-12T07:44:21.176Z,50.48
2016-04-12T07:45:21.226Z,50.77
2016-04-12T07:46:21.247Z,50.48
2016-04-12T07:47:21.279Z,50.67
2016-04-12T07:48:21.284Z,50.38
2016-04-12T07:49:21.287Z,50.38
2016-04-12T07:50:21.277Z,50.1
2016-04-12T07:51:21.281Z,50.29
2016-04-12T07:52:21.284Z,50.2
2016-04-12T07:53:21.278Z,49.81
2016-04-12T07:54:21.270Z,50
2016-04-12T07:55:21.248Z,49.71
2016-04-12T07:56:21.241Z,50
2016-04-12T07:57:21.235Z,49.43
2016-04-12T07:58:21.224Z,49.33
2016-04-12T07:59:21.198Z,49.05
2016-04-12T08:00:21.187Z,49.24
2016-04-12T08:01:21.176Z,49.05
2016-04-12T08:02:21.196Z,49.43
2016-04-12T08:03:21.153Z,49.43
2016-04-12T08:04:21.126Z,49.52
2016-04-12T08:05:21.113Z,48.95
2016-04-12T08:06:21.101Z,49.52
2016-04-12T08:07:21.074Z,49.14
2016-04-12T08:08:21.066Z,49.11
2016-04-12T08:09:21.038Z,49.02
2016-04-12T08:10:21.024Z,49.4
2016-04-12T08:11:21.044Z,49.11
2016-04-12T08:12:20.984Z,49.4
2016-04-12T08:13:20.970Z,49.31
2016-04-12T08:14:20.963Z,49.21
2016-04-12T08:15:20.934Z,49.11
2016-04-12T08:16:20.922Z,49.11
2016-04-12T08:17:20.909Z,49.21
2016-04-12T08:18:20.942Z,49.31
2016-04-12T08:19:20.866Z,48.93
2016-04-12T08:20:20.855Z,49.02
2016-04-12T08:21:20.841Z,49.11
2016-04-12T08:22:20.813Z,49.02
2016-04-12T08:23:20.830Z,49.05
2016-04-12T08:24:25.319Z,48.95
2016-04-12T08:25:20.758Z,48.75
2016-04-12T08:26:20.745Z,48.57
2016-04-12T08:27:20.716Z,48.09
2016-04-12T08:28:20.704Z,47.99
2016-04-12T08:29:20.691Z,47.51
2016-04-12T08:30:20.679Z,46.94
2016-04-12T08:31:20.649Z,47.03
2016-04-12T08:32:20.637Z,47.42
2016-04-12T08:33:20.717Z,46.94
2016-04-12T08:34:20.595Z,46.94
2016-04-12T08:35:20.582Z,47.03
2016-04-12T08:36:20.554Z,46.84
2016-04-12T08:37:20.540Z,46.46
2016-04-12T08:38:20.528Z,46.46
2016-04-12T08:39:20.515Z,46.26
2016-04-12T08:40:20.502Z,45.98
2016-04-12T08:41:20.520Z,46.08
2016-04-12T08:42:20.445Z,45.89
2016-04-12T08:43:20.432Z,45.79
2016-04-12T08:44:20.419Z,45.4
2016-04-12T08:45:20.390Z,45.31
2016-04-12T08:46:20.378Z,45.59
2016-04-12T08:47:20.364Z,45.21
2016-04-12T08:48:20.367Z,45.12
2016-04-12T08:49:20.323Z,45.31
2016-04-12T08:50:20.310Z,44.73
2016-04-12T08:51:20.297Z,44.83
2016-04-12T08:52:20.269Z,44.64
2016-04-12T08:53:20.255Z,44.64
2016-04-12T08:54:20.243Z,44.16
2016-04-12T08:55:20.230Z,44.27
2016-04-12T08:56:20.202Z,44.09
2016-04-12T08:57:20.188Z,43.41
2016-04-12T08:58:20.160Z,43.8
2016-04-12T08:59:20.147Z,43.41
2016-04-12T09:00:20.134Z,43.23
2016-04-12T09:01:20.105Z,43.13
2016-04-12T09:02:20.093Z,42.94
2016-04-12T09:03:20.110Z,42.65
2016-04-12T09:04:20.051Z,42.84
2016-04-12T09:05:20.037Z,43.24
2016-04-12T09:06:20.025Z,42.36
2016-04-12T09:07:20.012Z,42.38
2016-04-12T09:08:19.984Z,42.1
2016-04-12T09:09:19.959Z,41.71
2016-04-12T09:10:19.947Z,41.8
2016-04-12T09:11:19.934Z,41.33
2016-04-12T09:12:19.906Z,41.23
2016-04-12T09:13:19.892Z,40.84
2016-04-12T09:14:19.880Z,40.75
2016-04-12T09:15:19.866Z,40.84
2016-04-12T09:16:19.838Z,40.84
2016-04-12T09:17:19.825Z,40.47
2016-04-12T09:18:19.812Z,40.47
2016-04-12T09:19:20.252Z,40.66
2016-04-12T09:20:19.771Z,40.66
2016-04-12T09:21:19.757Z,40.17
2016-04-12T09:22:19.744Z,40.2
2016-04-12T09:23:19.716Z,40.48
2016-04-12T09:24:19.703Z,40.2
2016-04-12T09:25:19.690Z,39.72
2016-04-12T09:26:19.677Z,39.62
2016-04-12T09:27:19.649Z,39.62
2016-04-12T09:28:19.635Z,39.14
2016-04-12T09:29:19.623Z,39.23
2016-04-12T09:30:19.610Z,39.62
2016-04-12T09:31:19.582Z,39.33
2016-04-12T09:32:19.568Z,38.85
2016-04-12T09:33:19.556Z,38.85
2016-04-12T09:34:19.543Z,38.76
2016-04-12T09:35:19.515Z,38.85
2016-04-12T09:36:19.501Z,38.47
2016-04-12T09:37:19.488Z,38.76
2016-04-12T09:38:19.475Z,38.39
2016-04-12T09:39:19.447Z,38.2
2016-04-12T09:40:19.434Z,38.1
2016-04-12T09:41:19.421Z,38.01
2016-04-12T09:42:19.408Z,37.53
2016-04-12T09:43:19.395Z,37.43
2016-04-12T09:44:19.381Z,37.24
2016-04-12T09:45:19.353Z,37.24
2016-04-12T09:46:19.419Z,36.66
2016-04-12T09:47:19.328Z,37.24
2016-04-12T09:48:19.314Z,37.07
2016-04-12T09:49:19.302Z,36.68
2016-04-12T09:50:19.273Z,36.2
2016-04-12T09:51:19.260Z,35.91
2016-04-12T09:52:19.246Z,35.72
2016-04-12T09:53:19.234Z,35.43
2016-04-12T09:54:19.222Z,34.95
2016-04-12T09:55:19.208Z,34.88
2016-04-12T09:56:19.196Z,34.59
2016-04-12T09:57:19.166Z,33.82
2016-04-12T09:58:19.154Z,33.91
2016-04-12T09:59:19.141Z,34.01
2016-04-12T10:00:19.129Z,33.82
2016-04-12T10:01:19.116Z,33.72
2016-04-12T10:02:19.118Z,33.44
2016-04-12T10:03:19.089Z,33.34
2016-04-12T10:04:19.076Z,33.53
2016-04-12T10:05:19.063Z,33.16
2016-04-12T10:06:19.034Z,33.16
2016-04-12T10:07:19.038Z,32.78
2016-04-12T10:08:19.009Z,32.78
2016-04-12T10:09:18.996Z,32.78
2016-04-12T10:10:18.983Z,32.68
2016-04-12T10:11:18.970Z,32.39
2016-04-12T10:12:18.957Z,32.49
2016-04-12T10:13:18.944Z,32.31
2016-04-12T10:14:18.931Z,32.01
2016-04-12T10:15:18.918Z,32.03
2016-04-12T10:16:18.906Z,31.93
2016-04-12T10:17:18.892Z,31.83
2016-04-12T10:18:18.880Z,31.74
2016-04-12T10:19:18.866Z,31.83
2016-04-12T10:20:18.853Z,31.83
2016-04-12T10:21:18.841Z,31.54
2016-04-12T10:22:18.828Z,31.35
2016-04-12T10:23:18.816Z,31.45
2016-04-12T10:24:18.802Z,31.54
2016-04-12T10:25:18.788Z,31.45
2016-04-12T10:26:18.760Z,31.16
2016-04-12T10:27:18.747Z,31.16
2016-04-12T10:28:18.735Z,30.87
2016-04-12T10:29:18.721Z,30.97
2016-04-12T10:30:18.709Z,30.77
2016-04-12T10:31:18.696Z,31.06
2016-04-12T10:32:18.682Z,31.16
2016-04-12T10:33:18.670Z,31.05
2016-04-12T10:34:18.673Z,31.34
2016-04-12T10:35:18.643Z,31.34
2016-04-12T10:36:18.632Z,31.43
2016-04-12T10:37:18.618Z,31.24
2016-04-12T10:38:18.606Z,31.34
2016-04-12T10:39:18.592Z,31.43
2016-04-12T10:40:18.579Z,31.43
2016-04-12T10:41:18.566Z,31.45
2016-04-12T10:42:18.553Z,31.53
2016-04-12T10:43:18.541Z,31.43
2016-04-12T10:44:18.528Z,31.72
2016-04-12T10:45:18.515Z,31.54
2016-04-12T10:46:18.502Z,31.43
2016-04-12T10:47:18.489Z,31.53
2016-04-12T10:48:18.461Z,31.24
2016-04-12T10:49:18.448Z,31.24
2016-04-12T10:50:18.434Z,30.76
2016-04-12T10:51:18.421Z,30.49
2016-04-12T10:52:18.409Z,30.57
2016-04-12T10:53:18.396Z,30.87
2016-04-12T10:54:18.383Z,30.47
2016-04-12T10:55:18.370Z,30.29
2016-04-12T10:56:18.357Z,30.18
2016-04-12T10:57:18.344Z,30.38
2016-04-12T10:58:18.330Z,30.28
2016-04-12T10:59:18.318Z,30.57
2016-04-12T11:00:18.305Z,30.38
2016-04-12T11:01:18.292Z,30.08
2016-04-12T11:02:18.263Z,29.9
2016-04-12T11:03:18.485Z,29.7
2016-04-12T11:04:18.237Z,29.7
2016-04-12T11:05:18.224Z,29.51
2016-04-12T11:06:18.212Z,29.61
2016-04-12T11:07:18.198Z,29.72
2016-04-12T11:08:18.186Z,29.61
2016-04-12T11:09:18.174Z,29.32
2016-04-12T11:10:18.160Z,29.33
2016-04-12T11:11:18.147Z,29.24
2016-04-12T11:12:18.134Z,29.14
2016-04-12T11:13:18.120Z,29.33
2016-04-12T11:14:18.109Z,28.95
2016-04-12T11:15:18.095Z,29.04
2016-04-12T11:16:18.083Z,28.75
2016-04-12T11:17:18.069Z,28.47
2016-04-12T11:18:18.056Z,28.56
2016-04-12T11:19:18.044Z,28.45
2016-04-12T11:20:18.030Z,28.36
2016-04-12T11:21:18.017Z,28.47
2016-04-12T11:22:17.989Z,28.47
2016-04-12T11:23:17.977Z,28.27
2016-04-12T11:24:17.964Z,28.27
2016-04-12T11:25:17.966Z,28.36
2016-04-12T11:26:17.938Z,28.18
2016-04-12T11:27:17.924Z,28.18
2016-04-12T11:28:17.911Z,28.18
2016-04-12T11:29:17.899Z,27.8
2016-04-12T11:30:17.886Z,28.08
2016-04-12T11:31:17.874Z,27.5
2016-04-12T11:32:17.859Z,27.51
2016-04-12T11:33:17.847Z,27.33
2016-04-12T11:34:17.835Z,26.94
2016-04-12T11:35:17.821Z,27.13
2016-04-12T11:36:17.808Z,27.23
2016-04-12T11:37:17.795Z,27.33
2016-04-12T11:38:17.782Z,27.04
2016-04-12T11:39:17.769Z,26.75
2016-04-12T11:40:17.756Z,26.65
2016-04-12T11:41:17.743Z,26.37
2016-04-12T11:42:17.730Z,25.9
2016-04-12T11:43:17.717Z,25.9
2016-04-12T11:44:17.705Z,25.52
2016-04-12T11:45:17.692Z,25.43
2016-04-12T11:46:17.678Z,25.13
2016-04-12T11:47:17.666Z,25.04
2016-04-12T11:48:17.653Z,24.85
2016-04-12T11:49:17.640Z,24.85
2016-04-12T11:50:17.627Z,24.66
2016-04-12T11:51:17.614Z,24.18
2016-04-12T11:52:17.600Z,24.18
2016-04-12T11:53:17.588Z,24.46
2016-04-12T11:54:17.575Z,24.37
2016-04-12T11:55:17.563Z,23.88
2016-04-12T11:56:17.549Z,23.8
2016-04-12T11:57:17.536Z,23.51
2016-04-12T11:58:17.524Z,23.41
2016-04-12T11:59:17.511Z,23.41
2016-04-12T12:00:17.498Z,23.03
2016-04-12T12:01:17.485Z,23.13
2016-04-12T12:02:17.660Z,23.13
2016-04-12T12:03:17.459Z,23.22
2016-04-12T12:04:17.477Z,23.03
2016-04-12T12:05:17.433Z,23.03
2016-04-12T12:06:17.420Z,22.93
2016-04-12T12:07:17.407Z,22.93
2016-04-12T12:08:17.394Z,23.03
2016-04-12T12:09:17.381Z,23.13
2016-04-12T12:10:17.368Z,23.13
2016-04-12T12:11:17.355Z,23.02
2016-04-12T12:12:17.342Z,23.13
2016-04-12T12:13:17.330Z,23.22
2016-04-12T12:14:17.317Z,23.03
2016-04-12T12:15:17.303Z,22.93
2016-04-12T12:16:17.290Z,22.74
2016-04-12T12:17:17.278Z,22.74
2016-04-12T12:18:17.281Z,22.45
2016-04-12T12:19:17.253Z,22.26
2016-04-12T12:20:17.239Z,22.16
2016-04-12T12:21:17.242Z,21.97
2016-04-12T12:22:17.229Z,21.97
2016-04-12T12:23:17.216Z,21.79
2016-04-12T12:24:17.203Z,21.69
2016-04-12T12:25:17.190Z,21.59
2016-04-12T12:26:17.177Z,21.4
2016-04-12T12:27:17.164Z,21.69
2016-04-12T12:28:17.152Z,21.5
2016-04-12T12:29:17.154Z,21.59
2016-04-12T12:30:17.125Z,21.4
2016-04-12T12:31:17.113Z,21.31
2016-04-12T12:32:17.099Z,21.31
2016-04-12T12:33:17.086Z,21.2
2016-04-12T12:34:17.089Z,21.3
2016-04-12T12:35:17.076Z,21.48
2016-04-12T12:36:17.063Z,21.39
2016-04-12T12:37:17.051Z,21.38
2016-04-12T12:38:17.038Z,21.68
2016-04-12T12:39:17.024Z,21.48
2016-04-12T12:40:17.012Z,21.67
2016-04-12T12:41:16.998Z,21.48
2016-04-12T12:42:16.985Z,21.58
2016-04-12T12:43:16.973Z,21.48
2016-04-12T12:44:16.960Z,21.58
2016-04-12T12:45:16.948Z,21.58
2016-04-12T12:46:16.934Z,21.67
2016-04-12T12:47:16.952Z,21.58
2016-04-12T12:48:16.908Z,21.77
2016-04-12T12:49:16.895Z,21.67
2016-04-12T12:50:16.881Z,21.67
2016-04-12T12:51:16.885Z,21.86
2016-04-12T12:52:16.872Z,21.86
2016-04-12T12:53:16.858Z,21.86
2016-04-12T12:54:16.846Z,21.77
2016-04-12T12:55:16.833Z,21.86